Time;durP1;ratioP1;P1;durP2;ratioP2;P2;SDS_P1;SDS_P2;PMS_P1;PMS_P2;Temp;Humidity;BMP_temperature;BMP_pressure;BME280_temperature;BME280_humidity;BME280_pressure;Samples;Min_cycle;Max_cycle;Signal;HPM_P1;HPM_P2
2022/03/14 00:01:01;;;;;;;3.40;3.20;;;11.80;99.90;;;;;;5039208;28;20315;-65
2022/03/14 00:03:28;;;;;;;3.35;3.15;;;11.80;99.90;;;;;;5040018;28;20308;-64
2022/03/14 00:05:55;;;;;;;3.37;3.17;;;11.90;99.90;;;;;;5039613;28;20215;-65
2022/03/14 00:08:24;;;;;;;3.20;3.10;;;11.80;99.90;;;;;;5039454;28;20287;-65
2022/03/14 00:10:52;;;;;;;2.95;2.85;;;11.80;99.90;;;;;;5036865;28;20266;-65
2022/03/14 00:13:19;;;;;;;3.00;2.90;;;11.80;99.90;;;;;;5035418;28;20302;-66
2022/03/14 00:15:46;;;;;;;3.00;2.90;;;11.80;99.90;;;;;;5038893;28;20304;-65
2022/03/14 00:18:13;;;;;;;2.75;2.65;;;11.80;99.90;;;;;;5040047;28;20254;-65
2022/03/14 00:20:42;;;;;;;3.05;2.95;;;11.80;99.90;;;;;;5035889;28;20206;-65
2022/03/14 00:23:09;;;;;;;3.20;3.00;;;11.80;99.90;;;;;;5034758;28;20231;-65
2022/03/14 00:25:37;;;;;;;2.72;2.63;;;11.80;99.90;;;;;;5035733;28;20663;-65
2022/03/14 00:28:05;;;;;;;2.40;2.30;;;11.80;99.90;;;;;;5038186;28;20208;-65
2022/03/14 00:30:32;;;;;;;2.55;2.45;;;11.80;99.90;;;;;;5034418;28;20210;-66
2022/03/14 00:32:59;;;;;;;2.90;2.80;;;11.80;99.90;;;;;;5034709;28;20228;-65
2022/03/14 00:35:27;;;;;;;2.53;2.42;;;11.70;99.90;;;;;;5034848;28;20203;-65
2022/03/14 00:37:54;;;;;;;2.60;2.50;;;11.70;99.90;;;;;;5039005;28;20209;-67
2022/03/14 00:40:21;;;;;;;2.60;2.50;;;11.70;99.90;;;;;;5038669;28;20230;-66
2022/03/14 00:42:49;;;;;;;2.40;2.20;;;11.70;99.90;;;;;;5040198;28;20623;-64
2022/03/14 00:45:16;;;;;;;2.05;1.95;;;11.50;99.90;;;;;;5039834;28;20201;-65
2022/03/14 00:47:43;;;;;;;2.00;1.90;;;11.50;99.90;;;;;;5032884;28;20575;-65
2022/03/14 00:50:11;;;;;;;1.98;1.88;;;11.50;99.90;;;;;;5035039;28;20204;-65
2022/03/14 00:52:37;;;;;;;1.90;1.80;;;11.40;99.90;;;;;;5036593;28;20308;-64
2022/03/14 00:55:05;;;;;;;2.00;1.90;;;11.50;99.90;;;;;;5034865;28;20205;-65
2022/03/14 00:57:32;;;;;;;1.60;1.60;;;11.50;99.90;;;;;;5034780;28;20204;-65
2022/03/14 01:00:00;;;;;;;2.00;1.90;;;11.60;99.90;;;;;;5037413;28;20319;-65
2022/03/14 01:02:27;;;;;;;1.48;1.48;;;11.60;99.90;;;;;;5033166;28;20220;-66
2022/03/14 01:04:54;;;;;;;1.93;1.83;;;11.60;99.90;;;;;;5039040;28;20212;-65
2022/03/14 01:07:21;;;;;;;1.52;1.50;;;11.60;99.90;;;;;;5037444;28;20236;-65
2022/03/14 01:09:48;;;;;;;1.40;1.40;;;11.50;99.90;;;;;;5037377;28;20201;-64
2022/03/14 01:12:15;;;;;;;1.40;1.40;;;11.50;99.90;;;;;;5036574;28;20227;-65
2022/03/14 01:14:43;;;;;;;1.38;1.38;;;11.40;99.90;;;;;;5032706;28;20295;-65
2022/03/14 01:17:12;;;;;;;1.40;1.40;;;11.30;99.90;;;;;;5032246;28;20258;-65
2022/03/14 01:19:39;;;;;;;1.40;1.40;;;11.30;99.90;;;;;;5032892;28;20937;-65
2022/03/14 01:22:10;;;;;;;1.20;1.20;;;11.30;99.90;;;;;;5037734;28;20822;-65
2022/03/14 01:24:38;;;;;;;1.17;1.17;;;11.30;99.90;;;;;;5050553;28;20195;-65
2022/03/14 01:27:05;;;;;;;1.10;1.10;;;11.20;99.90;;;;;;5055973;28;20219;-67
2022/03/14 01:29:34;;;;;;;1.00;1.00;;;11.20;99.90;;;;;;5059279;28;20204;-66
2022/03/14 01:32:01;;;;;;;1.07;1.07;;;11.20;99.90;;;;;;5061312;28;20651;-66
2022/03/14 01:34:29;;;;;;;1.13;1.13;;;11.10;99.90;;;;;;5060276;28;20291;-64
2022/03/14 01:36:56;;;;;;;1.35;1.35;;;11.10;99.90;;;;;;5059729;28;20238;-64
2022/03/14 01:39:23;;;;;;;1.27;1.27;;;11.10;99.90;;;;;;5048203;28;20254;-65
2022/03/14 01:41:50;;;;;;;1.08;1.08;;;11.00;99.90;;;;;;5044364;28;20218;-65
2022/03/14 01:44:17;;;;;;;1.10;1.10;;;11.00;99.90;;;;;;5036230;28;20795;-63
2022/03/14 01:46:45;;;;;;;1.17;1.17;;;11.10;99.90;;;;;;5040836;28;20212;-64
2022/03/14 01:49:12;;;;;;;1.30;1.30;;;11.10;99.90;;;;;;5048035;28;20199;-65
2022/03/14 01:51:41;;;;;;;1.23;1.23;;;11.00;99.90;;;;;;5053747;28;20253;-65
2022/03/14 01:54:08;;;;;;;1.17;1.17;;;10.90;99.90;;;;;;5042051;28;20200;-65
2022/03/14 01:56:38;;;;;;;1.10;1.10;;;10.80;99.90;;;;;;5052925;28;20208;-64
2022/03/14 01:59:05;;;;;;;1.20;1.20;;;10.90;99.90;;;;;;5050698;28;20223;-65
2022/03/14 02:01:33;;;;;;;1.10;1.10;;;10.80;99.90;;;;;;5053574;28;20710;-65
2022/03/14 02:04:00;;;;;;;1.05;1.05;;;10.80;99.90;;;;;;5049412;28;20706;-64
2022/03/14 02:06:28;;;;;;;1.00;1.00;;;10.80;99.90;;;;;;5036219;28;20288;-65
2022/03/14 02:08:56;;;;;;;1.00;1.00;;;10.80;99.90;;;;;;5038605;28;20235;-65
2022/03/14 02:11:23;;;;;;;1.30;1.30;;;10.90;99.90;;;;;;5041873;28;20200;-64
2022/03/14 02:13:50;;;;;;;1.00;1.00;;;10.90;99.90;;;;;;5039728;28;20207;-65
2022/03/14 02:16:17;;;;;;;1.10;1.10;;;11.00;99.90;;;;;;5037628;28;20610;-65
2022/03/14 02:18:44;;;;;;;1.10;1.10;;;10.90;99.90;;;;;;5039977;28;20726;-64
2022/03/14 02:21:13;;;;;;;1.00;1.00;;;10.90;99.90;;;;;;5031194;28;20206;-66
2022/03/14 02:23:40;;;;;;;1.15;1.15;;;10.80;99.90;;;;;;5033726;28;20282;-64
2022/03/14 02:26:07;;;;;;;1.05;1.05;;;10.80;99.90;;;;;;5035367;28;20705;-65
2022/03/14 02:28:36;;;;;;;1.08;1.08;;;10.80;99.90;;;;;;5036638;28;20283;-65
2022/03/14 02:31:04;;;;;;;0.70;0.70;;;10.80;99.90;;;;;;5034304;28;20623;-65
2022/03/14 02:33:31;;;;;;;0.67;0.67;;;10.70;99.90;;;;;;5033510;28;20232;-65
2022/03/14 02:35:58;;;;;;;0.60;0.60;;;10.70;99.90;;;;;;5034189;28;20210;-65
2022/03/14 02:38:26;;;;;;;0.60;0.60;;;10.70;99.90;;;;;;5031621;28;20243;-65
2022/03/14 02:40:53;;;;;;;0.40;0.40;;;10.60;99.90;;;;;;5032163;28;20218;-64
2022/03/14 02:43:22;;;;;;;0.30;0.30;;;10.60;99.90;;;;;;5033699;28;20224;-65
2022/03/14 02:45:51;;;;;;;0.40;0.40;;;10.50;99.90;;;;;;5036802;28;20203;-65
2022/03/14 02:48:18;;;;;;;0.33;0.33;;;10.50;99.90;;;;;;5050168;28;20200;-64
2022/03/14 02:50:48;;;;;;;0.45;0.45;;;10.50;99.90;;;;;;5046929;28;20196;-65
2022/03/14 02:53:15;;;;;;;0.27;0.27;;;10.50;99.90;;;;;;5049443;28;20732;-65
2022/03/14 02:55:44;;;;;;;0.40;0.40;;;10.50;99.90;;;;;;5050363;28;20295;-64
2022/03/14 02:58:11;;;;;;;0.28;0.28;;;10.50;99.90;;;;;;5047514;28;20215;-64
2022/03/14 03:00:38;;;;;;;0.30;0.30;;;10.50;99.90;;;;;;5040721;28;20655;-66
2022/03/14 03:03:06;;;;;;;0.40;0.40;;;10.60;99.90;;;;;;5052595;28;20315;-65
2022/03/14 03:05:34;;;;;;;0.30;0.30;;;10.50;99.90;;;;;;5054412;28;20670;-65
2022/03/14 03:08:04;;;;;;;0.20;0.20;;;10.50;99.90;;;;;;5054890;28;20210;-65
2022/03/14 03:10:34;;;;;;;0.30;0.30;;;10.50;99.90;;;;;;5046092;28;20201;-65
2022/03/14 03:13:03;;;;;;;0.90;0.40;;;10.40;99.90;;;;;;5054643;28;20224;-65
2022/03/14 03:15:30;;;;;;;0.30;0.30;;;10.50;99.90;;;;;;5054414;28;20210;-65
2022/03/14 03:17:57;;;;;;;0.30;0.30;;;10.50;99.90;;;;;;5059771;28;20207;-67
2022/03/14 03:20:25;;;;;;;0.30;0.30;;;10.60;99.90;;;;;;5062510;28;20701;-66
2022/03/14 03:22:52;;;;;;;0.35;0.35;;;10.60;99.90;;;;;;5061915;28;20227;-66
2022/03/14 03:25:19;;;;;;;0.35;0.35;;;10.50;99.90;;;;;;5052980;28;20291;-65
2022/03/14 03:27:46;;;;;;;0.30;0.30;;;10.50;99.90;;;;;;5053091;28;20207;-65
2022/03/14 03:30:14;;;;;;;0.30;0.30;;;10.50;99.90;;;;;;5052622;28;20298;-66
2022/03/14 03:32:41;;;;;;;0.30;0.30;;;10.50;99.90;;;;;;5053799;28;20246;-65
2022/03/14 03:35:09;;;;;;;0.40;0.40;;;10.50;99.90;;;;;;5053424;28;20204;-65
2022/03/14 03:37:36;;;;;;;0.20;0.20;;;10.40;99.90;;;;;;5053704;28;20559;-65
2022/03/14 03:40:03;;;;;;;0.17;0.17;;;10.40;99.90;;;;;;5053460;28;20296;-65
2022/03/14 03:42:30;;;;;;;0.20;0.20;;;10.40;99.90;;;;;;5053689;28;20623;-65
2022/03/14 03:44:57;;;;;;;0.30;0.30;;;10.30;99.90;;;;;;5053161;28;20211;-65
2022/03/14 03:47:25;;;;;;;0.30;0.30;;;10.30;99.90;;;;;;5052953;28;20295;-65
2022/03/14 03:49:52;;;;;;;0.30;0.30;;;10.20;99.90;;;;;;5053861;28;20203;-66
2022/03/14 03:52:19;;;;;;;0.30;0.30;;;10.20;99.90;;;;;;5053519;28;20224;-65
2022/03/14 03:54:46;;;;;;;0.20;0.20;;;10.20;99.90;;;;;;5054050;28;20290;-65
2022/03/14 03:57:13;;;;;;;0.30;0.30;;;10.20;99.90;;;;;;5053964;28;20464;-65
2022/03/14 03:59:40;;;;;;;0.20;0.20;;;10.20;99.90;;;;;;5055118;28;20705;-65
2022/03/14 04:02:08;;;;;;;0.30;0.30;;;10.30;99.90;;;;;;5053460;28;20713;-67
2022/03/14 04:04:37;;;;;;;0.20;0.20;;;10.40;99.90;;;;;;5055667;28;20211;-64
2022/03/14 04:07:06;;;;;;;0.30;0.30;;;10.20;99.90;;;;;;5079440;22;20188;-62
2022/03/14 04:09:33;;;;;;;0.40;0.40;;;10.10;99.90;;;;;;5050997;28;20310;-63
2022/03/14 04:12:00;;;;;;;0.30;0.30;;;10.10;99.90;;;;;;5053337;28;20263;-61
2022/03/14 04:14:27;;;;;;;0.20;0.20;;;10.10;99.90;;;;;;5053754;28;20219;-62
2022/03/14 04:16:54;;;;;;;0.30;0.30;;;10.10;99.90;;;;;;5053721;28;20306;-62
2022/03/14 04:19:21;;;;;;;0.23;0.23;;;10.10;99.90;;;;;;5054799;28;20204;-61
2022/03/14 04:21:52;;;;;;;0.32;0.32;;;10.00;99.90;;;;;;5054727;28;20279;-62
2022/03/14 04:24:20;;;;;;;0.10;0.10;;;10.00;99.90;;;;;;5055699;28;20192;-61
2022/03/14 04:26:47;;;;;;;0.30;0.30;;;10.00;99.90;;;;;;5055051;28;20311;-62
2022/03/14 04:29:14;;;;;;;0.40;0.40;;;10.00;99.90;;;;;;5054405;28;20215;-61
2022/03/14 04:31:42;;;;;;;0.30;0.30;;;9.90;99.90;;;;;;5053301;28;20582;-61
2022/03/14 04:34:09;;;;;;;0.20;0.20;;;9.90;99.90;;;;;;5053499;28;20287;-62
2022/03/14 04:36:36;;;;;;;0.40;0.40;;;10.00;99.90;;;;;;5053801;28;20299;-61
2022/03/14 04:39:05;;;;;;;0.38;0.38;;;10.00;99.90;;;;;;5054242;28;20223;-61
2022/03/14 04:41:35;;;;;;;0.47;0.47;;;10.00;99.90;;;;;;5052720;28;20226;-60
2022/03/14 04:44:02;;;;;;;0.30;0.30;;;9.90;99.90;;;;;;5053409;28;20239;-62
2022/03/14 04:46:29;;;;;;;0.47;0.47;;;9.90;99.90;;;;;;5053308;28;20251;-62
2022/03/14 04:48:56;;;;;;;0.30;0.30;;;9.90;99.90;;;;;;5053638;28;20282;-62
2022/03/14 04:51:24;;;;;;;0.20;0.20;;;9.90;99.90;;;;;;5052744;28;20287;-62
2022/03/14 04:53:51;;;;;;;0.20;0.20;;;9.90;99.90;;;;;;5054517;28;20665;-61
2022/03/14 04:56:20;;;;;;;0.20;0.20;;;9.80;99.90;;;;;;5054744;28;20298;-62
2022/03/14 04:58:47;;;;;;;0.13;0.13;;;9.90;99.90;;;;;;5053555;28;20313;-62
2022/03/14 05:01:14;;;;;;;0.30;0.30;;;9.80;99.90;;;;;;5054411;28;20628;-61
2022/03/14 05:03:41;;;;;;;0.30;0.30;;;9.80;99.90;;;;;;5054952;28;20263;-62
2022/03/14 05:06:08;;;;;;;0.20;0.20;;;9.80;99.90;;;;;;5055976;28;20218;-61
2022/03/14 05:08:35;;;;;;;0.30;0.30;;;9.80;99.90;;;;;;5054675;28;20678;-62
2022/03/14 05:11:02;;;;;;;0.20;0.20;;;9.80;99.90;;;;;;5053958;28;20239;-62
2022/03/14 05:13:31;;;;;;;0.30;0.30;;;9.80;99.90;;;;;;5053793;28;20203;-62
2022/03/14 05:15:58;;;;;;;0.30;0.30;;;9.80;99.90;;;;;;5053400;28;20243;-62
2022/03/14 05:18:25;;;;;;;0.30;0.30;;;9.80;99.90;;;;;;5052883;28;20231;-63
2022/03/14 05:20:52;;;;;;;0.40;0.40;;;9.70;99.90;;;;;;5052461;28;20273;-64
2022/03/14 05:23:19;;;;;;;0.38;0.38;;;9.70;99.90;;;;;;5054452;28;20207;-65
2022/03/14 05:25:46;;;;;;;0.38;0.38;;;9.70;99.90;;;;;;5054138;28;20633;-64
2022/03/14 05:28:13;;;;;;;0.50;0.50;;;9.70;99.90;;;;;;5053824;28;20259;-64
2022/03/14 05:30:41;;;;;;;0.27;0.27;;;9.80;99.90;;;;;;5052587;28;20230;-63
2022/03/14 05:33:08;;;;;;;0.60;0.60;;;9.80;99.90;;;;;;5049055;28;20291;-63
2022/03/14 05:35:35;;;;;;;0.40;0.40;;;9.80;99.90;;;;;;5052667;28;20290;-63
2022/03/14 05:38:02;;;;;;;0.20;0.20;;;9.80;99.90;;;;;;5052801;28;20297;-63
2022/03/14 05:40:29;;;;;;;0.50;0.50;;;9.70;99.90;;;;;;5052569;28;20332;-63
2022/03/14 05:42:58;;;;;;;0.30;0.30;;;9.70;99.90;;;;;;5053095;28;20258;-63
2022/03/14 05:45:24;;;;;;;0.30;0.30;;;9.60;99.90;;;;;;5055090;28;20326;-62
2022/03/14 05:47:53;;;;;;;0.38;0.38;;;9.60;99.90;;;;;;5053732;28;20331;-62
2022/03/14 05:50:20;;;;;;;0.30;0.30;;;9.50;99.90;;;;;;5056999;28;20263;-63
2022/03/14 05:52:46;;;;;;;0.20;0.20;;;9.50;99.90;;;;;;5059409;28;20671;-62
2022/03/14 05:55:14;;;;;;;0.28;0.28;;;9.50;99.90;;;;;;5053694;28;20704;-62
2022/03/14 05:57:41;;;;;;;0.40;0.40;;;9.40;99.90;;;;;;5049437;28;20927;-62
2022/03/14 06:00:10;;;;;;;0.47;0.47;;;9.40;99.90;;;;;;5050847;28;20222;-63
2022/03/14 06:02:38;;;;;;;0.50;0.50;;;9.40;99.90;;;;;;5049437;28;20283;-63
2022/03/14 06:05:06;;;;;;;0.60;0.60;;;9.40;99.90;;;;;;5033953;28;20236;-62
2022/03/14 06:07:33;;;;;;;0.50;0.50;;;9.30;99.90;;;;;;5049582;28;20731;-65
2022/03/14 06:10:00;;;;;;;0.50;0.50;;;9.30;99.90;;;;;;5053142;28;20289;-64
2022/03/14 06:12:30;;;;;;;0.70;0.70;;;9.30;99.90;;;;;;5055883;28;20196;-63
2022/03/14 06:14:58;;;;;;;0.70;0.70;;;9.40;99.90;;;;;;5056032;28;20214;-63
2022/03/14 06:17:26;;;;;;;0.80;0.80;;;9.40;99.90;;;;;;5060244;28;20227;-63
2022/03/14 06:19:53;;;;;;;0.68;0.68;;;9.50;99.90;;;;;;5058676;28;20295;-64
2022/03/14 06:22:24;;;;;;;0.70;0.70;;;9.50;99.90;;;;;;5053827;28;20581;-63
2022/03/14 06:24:51;;;;;;;0.73;0.73;;;9.50;99.90;;;;;;5051132;28;20287;-63
2022/03/14 06:27:20;;;;;;;0.70;0.70;;;9.40;99.90;;;;;;5043621;28;20228;-62
2022/03/14 06:29:47;;;;;;;0.60;0.60;;;9.40;99.90;;;;;;5051302;28;20235;-63
2022/03/14 06:32:15;;;;;;;0.75;0.75;;;9.40;99.90;;;;;;5053313;28;20195;-62
2022/03/14 06:34:42;;;;;;;0.50;0.50;;;9.40;99.90;;;;;;5055279;28;20279;-61
2022/03/14 06:37:09;;;;;;;0.60;0.60;;;9.40;99.90;;;;;;5054955;28;20307;-61
2022/03/14 06:39:39;;;;;;;0.50;0.50;;;9.40;99.90;;;;;;5053931;28;20330;-61
2022/03/14 06:42:09;;;;;;;0.60;0.60;;;9.40;99.90;;;;;;5054346;28;20312;-62
2022/03/14 06:44:39;;;;;;;0.60;0.60;;;9.30;99.90;;;;;;5053270;28;20250;-61
2022/03/14 06:47:07;;;;;;;0.70;0.70;;;9.30;99.90;;;;;;5049359;28;20235;-61
2022/03/14 06:49:36;;;;;;;0.50;0.50;;;9.30;99.90;;;;;;5055004;28;20196;-61
2022/03/14 06:52:03;;;;;;;0.45;0.45;;;9.30;99.90;;;;;;5050182;28;20246;-60
2022/03/14 06:54:30;;;;;;;0.40;0.40;;;9.30;99.90;;;;;;5053997;28;20200;-60
2022/03/14 06:56:59;;;;;;;0.40;0.40;;;9.30;99.90;;;;;;5051912;28;20251;-60
2022/03/14 06:59:26;;;;;;;0.35;0.35;;;9.30;99.90;;;;;;5054760;28;20200;-63
2022/03/14 07:01:53;;;;;;;0.65;0.65;;;9.30;99.90;;;;;;5053155;28;20216;-62
2022/03/14 07:04:19;;;;;;;0.60;0.60;;;9.40;99.90;;;;;;5048644;28;20228;-62
2022/03/14 07:06:46;;;;;;;0.63;0.60;;;9.50;99.90;;;;;;5054100;28;20210;-62
2022/03/14 07:09:13;;;;;;;0.40;0.40;;;9.50;99.90;;;;;;5046589;28;20208;-61
2022/03/14 07:11:40;;;;;;;0.60;0.60;;;9.50;99.90;;;;;;5056764;28;20286;-62
2022/03/14 07:14:09;;;;;;;0.60;0.60;;;9.50;99.90;;;;;;5058620;28;20235;-61
2022/03/14 07:16:36;;;;;;;0.60;0.60;;;9.50;99.90;;;;;;5057752;28;20243;-61
2022/03/14 07:19:03;;;;;;;0.70;0.70;;;9.60;99.90;;;;;;5055226;28;20259;-60
2022/03/14 07:21:34;;;;;;;0.65;0.65;;;9.60;99.90;;;;;;5053688;28;20220;-61
2022/03/14 07:24:00;;;;;;;0.68;0.68;;;9.60;99.90;;;;;;5054842;28;20204;-61
2022/03/14 07:26:27;;;;;;;0.45;0.45;;;9.60;99.90;;;;;;5054276;28;20211;-61
2022/03/14 07:28:54;;;;;;;0.68;0.68;;;9.60;99.90;;;;;;5054526;28;20275;-63
2022/03/14 07:31:23;;;;;;;0.70;0.70;;;9.60;99.90;;;;;;5055734;28;20307;-60
2022/03/14 07:33:50;;;;;;;1.58;0.80;;;9.60;99.90;;;;;;5056587;28;20231;-61
2022/03/14 07:36:17;;;;;;;0.80;0.80;;;9.60;99.90;;;;;;5055775;28;20297;-61
2022/03/14 07:38:45;;;;;;;0.60;0.60;;;9.60;99.90;;;;;;5056750;28;20251;-60
2022/03/14 07:41:12;;;;;;;0.70;0.70;;;9.70;99.90;;;;;;5055453;28;20782;-63
2022/03/14 07:43:39;;;;;;;0.60;0.60;;;9.70;99.90;;;;;;5054161;28;20329;-62
2022/03/14 07:46:06;;;;;;;0.60;0.60;;;9.80;99.90;;;;;;5054399;28;20200;-62
2022/03/14 07:48:35;;;;;;;0.90;0.90;;;9.90;99.90;;;;;;5054293;28;20259;-61
2022/03/14 07:51:03;;;;;;;0.77;0.77;;;10.00;99.90;;;;;;5053385;28;20579;-61
2022/03/14 07:53:30;;;;;;;0.53;0.53;;;10.00;99.90;;;;;;5054229;28;20295;-62
2022/03/14 07:55:57;;;;;;;0.70;0.70;;;10.10;99.90;;;;;;5056256;28;20673;-61
2022/03/14 07:58:24;;;;;;;0.57;0.55;;;10.30;99.90;;;;;;5056307;28;20263;-60
2022/03/14 08:00:51;;;;;;;0.80;0.80;;;10.40;99.90;;;;;;5054272;28;20247;-62
2022/03/14 08:03:18;;;;;;;0.75;0.75;;;10.50;99.90;;;;;;5054806;28;20266;-61
2022/03/14 08:05:47;;;;;;;0.60;0.60;;;10.60;99.90;;;;;;5053871;28;20204;-61
2022/03/14 08:08:15;;;;;;;1.00;0.80;;;10.80;99.90;;;;;;5053988;28;20228;-62
2022/03/14 08:10:42;;;;;;;0.80;0.80;;;10.90;99.90;;;;;;5052820;28;20211;-63
2022/03/14 08:13:09;;;;;;;0.75;0.75;;;11.00;99.90;;;;;;5053520;28;20200;-62
2022/03/14 08:15:37;;;;;;;0.70;0.70;;;11.00;99.90;;;;;;5053671;28;20231;-61
2022/03/14 08:18:05;;;;;;;0.80;0.80;;;11.00;99.90;;;;;;5053421;28;20219;-63
2022/03/14 08:20:32;;;;;;;0.90;0.90;;;11.10;99.90;;;;;;5052858;28;20208;-61
2022/03/14 08:23:02;;;;;;;0.75;0.75;;;11.30;99.90;;;;;;5052554;28;20266;-61
2022/03/14 08:25:30;;;;;;;1.02;1.00;;;11.40;99.90;;;;;;5053261;28;20692;-61
2022/03/14 08:27:58;;;;;;;1.00;1.00;;;11.60;99.90;;;;;;5052963;28;20323;-61
2022/03/14 08:30:25;;;;;;;1.00;1.00;;;11.80;99.90;;;;;;5052646;28;20291;-60
2022/03/14 08:32:54;;;;;;;0.80;0.80;;;11.90;99.90;;;;;;5052628;28;20239;-62
2022/03/14 08:35:21;;;;;;;0.70;0.70;;;12.10;99.90;;;;;;5047807;28;20227;-60
2022/03/14 08:37:50;;;;;;;0.60;0.60;;;12.20;99.90;;;;;;5041087;28;20252;-62
2022/03/14 08:40:20;;;;;;;0.70;0.70;;;12.30;99.90;;;;;;5032741;28;20215;-62
2022/03/14 08:42:47;;;;;;;0.67;0.67;;;12.50;99.90;;;;;;5032617;28;20209;-61
2022/03/14 08:45:15;;;;;;;0.70;0.70;;;12.50;99.90;;;;;;5047950;28;20664;-60
2022/03/14 08:47:42;;;;;;;1.17;0.90;;;12.60;99.90;;;;;;5054755;28;20235;-61
2022/03/14 08:50:11;;;;;;;0.60;0.60;;;12.80;99.90;;;;;;5056080;28;20243;-62
2022/03/14 08:52:39;;;;;;;0.65;0.65;;;13.00;99.90;;;;;;5054811;28;20208;-60
2022/03/14 08:55:07;;;;;;;0.60;0.60;;;13.20;99.90;;;;;;5052902;28;20738;-61
2022/03/14 08:57:35;;;;;;;0.70;0.70;;;13.30;99.90;;;;;;5053062;28;20226;-62
2022/03/14 09:00:02;;;;;;;0.63;0.63;;;13.40;99.90;;;;;;5052786;28;20239;-62
2022/03/14 09:02:29;;;;;;;0.97;0.97;;;13.40;99.90;;;;;;5052230;28;20246;-62
2022/03/14 09:04:57;;;;;;;0.73;0.73;;;13.40;99.90;;;;;;5052568;28;20311;-61
2022/03/14 09:07:27;;;;;;;0.70;0.70;;;13.50;99.90;;;;;;5052316;28;20753;-61
2022/03/14 09:09:55;;;;;;;0.60;0.60;;;13.60;99.90;;;;;;5052180;28;20196;-62
2022/03/14 09:12:22;;;;;;;0.77;0.77;;;13.80;99.90;;;;;;5052035;28;20226;-60
2022/03/14 09:14:51;;;;;;;0.75;0.75;;;13.80;99.90;;;;;;5052506;28;20246;-62
2022/03/14 09:17:18;;;;;;;0.65;0.63;;;13.90;99.90;;;;;;5052418;28;20232;-61
2022/03/14 09:19:45;;;;;;;0.60;0.60;;;14.10;99.90;;;;;;5051869;28;20242;-63
2022/03/14 09:22:12;;;;;;;0.80;0.80;;;14.20;99.90;;;;;;5051832;28;20316;-61
2022/03/14 09:24:39;;;;;;;0.60;0.60;;;14.30;99.90;;;;;;5052180;28;20745;-61
2022/03/14 09:27:08;;;;;;;0.98;0.85;;;14.30;99.90;;;;;;5047954;28;20228;-61
2022/03/14 09:29:35;;;;;;;0.80;0.80;;;14.20;99.90;;;;;;5039617;28;20196;-61
2022/03/14 09:32:03;;;;;;;0.80;0.80;;;14.20;99.90;;;;;;5049537;28;20223;-61
2022/03/14 09:34:31;;;;;;;1.00;0.90;;;14.40;99.90;;;;;;5051547;28;20294;-60
2022/03/14 09:36:58;;;;;;;0.70;0.70;;;14.30;99.90;;;;;;5051637;28;20208;-61
2022/03/14 09:39:25;;;;;;;0.60;0.60;;;14.50;99.90;;;;;;5051871;28;20290;-61
2022/03/14 09:41:53;;;;;;;0.80;0.80;;;14.60;99.90;;;;;;5051007;28;20315;-61
2022/03/14 09:44:22;;;;;;;0.68;0.68;;;14.70;99.90;;;;;;5051503;28;20666;-62
2022/03/14 09:46:50;;;;;;;0.82;0.82;;;14.80;99.90;;;;;;5046212;28;20215;-61
2022/03/14 09:49:19;;;;;;;0.82;0.80;;;14.90;99.90;;;;;;5034690;28;20682;-61
2022/03/14 09:51:47;;;;;;;0.68;0.68;;;15.00;99.90;;;;;;5034889;28;20200;-61
2022/03/14 09:54:14;;;;;;;0.85;0.85;;;15.10;99.90;;;;;;5037784;28;20260;-61
2022/03/14 09:56:42;;;;;;;0.60;0.60;;;15.20;99.90;;;;;;5035758;28;20697;-62
2022/03/14 09:59:12;;;;;;;0.70;0.70;;;15.30;99.90;;;;;;5041553;28;20665;-61
2022/03/14 10:01:39;;;;;;;0.77;0.77;;;15.40;99.90;;;;;;5034841;28;20228;-63
2022/03/14 10:04:07;;;;;;;0.77;0.77;;;15.60;99.90;;;;;;5038222;28;20243;-61
2022/03/14 10:06:36;;;;;;;1.10;1.10;;;15.70;99.90;;;;;;5044140;28;20208;-62
2022/03/14 10:09:04;;;;;;;0.70;0.70;;;15.70;99.90;;;;;;5055555;28;20496;-62
2022/03/14 10:11:31;;;;;;;0.70;0.70;;;15.50;99.90;;;;;;5054921;28;20565;-60
2022/03/14 10:13:58;;;;;;;0.68;0.68;;;15.30;99.90;;;;;;5053628;28;20322;-60
2022/03/14 10:16:25;;;;;;;0.80;0.80;;;15.40;99.90;;;;;;5052035;28;20322;-61
2022/03/14 10:18:55;;;;;;;1.17;0.98;;;15.20;99.90;;;;;;5052442;28;20318;-61
2022/03/14 10:21:33;;;;;;;0.80;0.80;;;15.40;99.90;;;;;;5053643;28;20211;-60
2022/03/14 10:24:07;;;;;;;0.70;0.70;;;15.40;99.90;;;;;;5043417;28;20286;-60
2022/03/14 10:26:35;;;;;;;0.60;0.60;;;15.60;99.90;;;;;;5052904;28;20286;-60
2022/03/14 10:29:11;;;;;;;0.77;0.70;;;15.80;99.90;;;;;;5051686;28;20242;-61
2022/03/14 10:31:41;;;;;;;0.68;0.68;;;16.00;99.90;;;;;;5051049;28;20621;-61
2022/03/14 10:34:11;;;;;;;0.60;0.60;;;16.00;99.90;;;;;;5050971;28;20646;-62
2022/03/14 10:36:45;;;;;;;0.50;0.50;;;15.90;99.90;;;;;;5051401;28;20204;-61
2022/03/14 10:39:18;;;;;;;0.80;0.80;;;15.90;99.90;;;;;;5051391;28;20728;-61
2022/03/14 10:42:02;;;;;;;0.80;0.80;;;16.10;99.90;;;;;;5050728;28;20224;-61
2022/03/14 10:44:30;;;;;;;0.75;0.75;;;16.20;99.90;;;;;;5039226;28;20223;-61
2022/03/14 10:46:59;;;;;;;0.70;0.70;;;16.30;99.90;;;;;;5035499;28;20201;-61
2022/03/14 10:49:31;;;;;;;0.80;0.80;;;16.30;99.90;;;;;;5043080;28;20211;-61
2022/03/14 10:51:59;;;;;;;0.80;0.73;;;16.30;99.90;;;;;;5039698;28;20205;-61
2022/03/14 10:54:28;;;;;;;0.90;0.90;;;16.30;99.90;;;;;;5040568;28;20327;-62
2022/03/14 10:57:07;;;;;;;0.68;0.68;;;16.40;99.90;;;;;;5044273;28;20202;-63
2022/03/14 10:59:36;;;;;;;0.65;0.65;;;16.40;99.90;;;;;;5040279;28;20201;-62
2022/03/14 11:02:07;;;;;;;0.70;0.70;;;16.40;99.90;;;;;;5061252;28;20266;-64
2022/03/14 11:04:45;;;;;;;0.77;0.77;;;16.30;99.90;;;;;;5051522;28;20205;-62
2022/03/14 11:07:13;;;;;;;0.90;0.90;;;16.30;99.90;;;;;;5049290;28;20239;-62
2022/03/14 11:09:44;;;;;;;6.03;1.58;;;16.20;99.90;;;;;;5051296;28;20280;-62
2022/03/14 11:12:13;;;;;;;0.80;0.80;;;16.20;99.90;;;;;;5050645;28;20242;-61
2022/03/14 11:14:40;;;;;;;0.80;0.80;;;16.10;99.90;;;;;;5050662;28;20291;-61
2022/03/14 11:17:11;;;;;;;0.70;0.70;;;16.10;99.90;;;;;;5048182;28;20311;-61
2022/03/14 11:19:39;;;;;;;0.80;0.80;;;16.20;99.90;;;;;;5041554;28;20196;-63
2022/03/14 11:22:11;;;;;;;0.70;0.70;;;16.40;99.90;;;;;;5054791;28;20234;-61
2022/03/14 11:24:45;;;;;;;0.80;0.80;;;16.60;99.90;;;;;;5051617;28;20565;-63
2022/03/14 11:27:18;;;;;;;0.80;0.80;;;16.70;99.90;;;;;;5043588;28;20295;-64
2022/03/14 11:29:46;;;;;;;0.50;0.50;;;16.70;99.90;;;;;;5042312;28;20200;-65
2022/03/14 11:32:16;;;;;;;0.60;0.60;;;16.70;99.90;;;;;;5036141;28;20240;-62
2022/03/14 11:34:43;;;;;;;0.80;0.80;;;16.80;99.90;;;;;;5041896;28;20215;-63
2022/03/14 11:37:11;;;;;;;0.68;0.68;;;16.60;99.90;;;;;;5040257;28;20701;-64
2022/03/14 11:39:39;;;;;;;0.93;0.90;;;16.60;99.90;;;;;;5036563;28;20205;-62
2022/03/14 11:42:08;;;;;;;0.60;0.60;;;16.30;99.90;;;;;;5040329;28;20228;-64
2022/03/14 11:44:37;;;;;;;1.00;0.93;;;16.40;99.90;;;;;;5039202;28;20243;-62
2022/03/14 11:47:05;;;;;;;0.70;0.70;;;16.30;99.90;;;;;;5040050;28;20682;-62
2022/03/14 11:49:32;;;;;;;0.80;0.80;;;15.90;99.90;;;;;;5039427;28;20690;-62
2022/03/14 11:52:18;;;;;;;0.60;0.60;;;15.70;99.90;;;;;;5039303;28;20200;-63
2022/03/14 11:54:48;;;;;;;0.77;0.77;;;15.50;99.90;;;;;;5053484;28;20629;-62
2022/03/14 11:57:33;;;;;;;0.98;0.98;;;15.50;99.90;;;;;;5053508;28;20701;-63
2022/03/14 12:00:25;;;;;;;0.68;0.68;;;15.80;99.90;;;;;;5053433;28;20776;-63
2022/03/14 12:02:54;;;;;;;0.85;0.85;;;15.70;99.90;;;;;;5052689;28;20238;-62
2022/03/14 12:05:22;;;;;;;0.88;0.88;;;15.70;99.90;;;;;;5053804;28;20189;-63
2022/03/14 12:07:49;;;;;;;0.80;0.80;;;16.00;99.90;;;;;;5053303;28;20270;-62
2022/03/14 12:10:27;;;;;;;0.80;0.80;;;16.00;99.90;;;;;;5055239;28;20208;-63
2022/03/14 12:12:55;;;;;;;0.90;0.90;;;16.00;99.90;;;;;;5047649;28;20208;-62
2022/03/14 12:15:38;;;;;;;0.70;0.70;;;16.30;99.90;;;;;;5042193;28;20204;-65
2022/03/14 12:18:29;;;;;;;0.88;0.88;;;16.60;99.90;;;;;;5043576;28;20228;-64
2022/03/14 12:20:59;;;;;;;1.67;0.98;;;16.30;99.90;;;;;;5047251;28;20295;-62
2022/03/14 12:23:28;;;;;;;0.73;0.73;;;15.80;99.90;;;;;;5051544;28;20218;-64
2022/03/14 12:25:56;;;;;;;1.00;0.90;;;15.70;99.90;;;;;;5049037;28;20210;-64
2022/03/14 12:28:30;;;;;;;0.75;0.75;;;15.90;99.90;;;;;;5045767;28;20239;-62
2022/03/14 12:31:01;;;;;;;0.70;0.70;;;15.90;99.90;;;;;;5039618;28;20200;-62
2022/03/14 12:33:32;;;;;;;0.73;0.73;;;16.00;99.90;;;;;;5037735;28;20205;-62
2022/03/14 12:36:01;;;;;;;0.70;0.70;;;16.20;99.90;;;;;;5042275;28;20211;-63
2022/03/14 12:38:28;;;;;;;0.65;0.65;;;16.30;99.90;;;;;;5037827;28;20228;-61
2022/03/14 12:40:56;;;;;;;0.82;0.82;;;16.40;99.90;;;;;;5036939;28;20607;-65
2022/03/14 12:43:28;;;;;;;0.88;0.88;;;16.60;99.90;;;;;;5035828;28;20495;-64
2022/03/14 12:45:57;;;;;;;0.70;0.70;;;16.30;99.90;;;;;;5037448;28;20211;-63
2022/03/14 12:48:26;;;;;;;0.70;0.70;;;16.00;99.90;;;;;;5035494;28;20315;-62
2022/03/14 12:51:02;;;;;;;0.70;0.70;;;16.10;99.90;;;;;;5040433;28;20211;-62
2022/03/14 12:53:47;;;;;;;1.13;0.93;;;16.30;99.90;;;;;;5042941;28;20193;-63
2022/03/14 12:56:26;;;;;;;0.80;0.80;;;16.30;99.90;;;;;;5044525;28;20206;-62